createdAt,value
2018-12-12T00:04:48.171Z,98822.58
2018-12-12T00:09:50.427Z,98822.45
2018-12-12T00:14:52.708Z,98824.20
2018-12-12T00:19:54.943Z,98837.47
2018-12-12T00:24:57.372Z,98837.53
2018-12-12T00:29:59.630Z,98837.33
2018-12-12T00:35:01.915Z,98846.83
2018-12-12T00:40:04.418Z,98847.99
2018-12-12T00:45:06.892Z,98849.67
2018-12-12T00:50:09.253Z,98856.78
2018-12-12T00:55:11.495Z,98858.97
2018-12-12T01:00:13.776Z,98870.04
2018-12-12T01:05:16.068Z,98869.30
2018-12-12T01:10:18.429Z,98881.80
2018-12-12T01:15:20.728Z,98882.46
2018-12-12T01:20:23.140Z,98889.28
2018-12-12T01:25:25.435Z,98886.38
2018-12-12T01:30:27.686Z,98894.61
2018-12-12T01:35:30.115Z,98891.81
2018-12-12T01:40:32.396Z,98900.55
2018-12-12T01:45:34.646Z,98896.56
2018-12-12T01:50:36.903Z,98902.13
2018-12-12T01:55:39.163Z,98902.95
2018-12-12T02:00:41.428Z,98904.52
2018-12-12T02:05:43.957Z,98901.00
2018-12-12T02:10:46.543Z,98910.89
2018-12-12T02:15:48.831Z,98915.42
2018-12-12T02:20:51.087Z,98917.05
2018-12-12T02:25:53.365Z,98924.00
2018-12-12T02:30:56.929Z,98926.39
2018-12-12T02:35:59.573Z,98912.73
2018-12-12T02:41:01.837Z,98917.52
2018-12-12T02:46:04.117Z,98919.33
2018-12-12T02:51:06.387Z,98920.27
2018-12-12T02:56:08.686Z,98924.88
2018-12-12T03:01:10.945Z,98930.23
2018-12-12T03:06:13.256Z,98933.53
2018-12-12T03:11:20.118Z,98941.79
2018-12-12T03:16:22.421Z,98945.09
2018-12-12T03:21:24.806Z,98949.40
2018-12-12T03:26:27.118Z,98959.42
2018-12-12T03:31:29.386Z,98963.13
2018-12-12T03:36:31.662Z,98966.31
2018-12-12T03:41:33.964Z,98970.88
2018-12-12T03:46:36.227Z,98972.08
2018-12-12T03:51:38.488Z,98969.00
2018-12-12T03:56:42.877Z,98962.94
2018-12-12T04:01:45.171Z,98966.71
2018-12-12T04:06:47.435Z,98968.23
2018-12-12T04:11:49.761Z,98972.44
2018-12-12T04:16:52.043Z,98975.98
2018-12-12T04:21:54.437Z,98980.59
2018-12-12T04:26:56.689Z,98981.63
2018-12-12T04:31:58.987Z,98988.47
2018-12-12T04:37:01.270Z,98994.93
2018-12-12T04:42:03.934Z,98986.09
2018-12-12T04:47:06.239Z,98990.88
2018-12-12T04:52:08.678Z,98990.19
2018-12-12T04:57:12.256Z,98994.11
2018-12-12T05:02:19.350Z,99003.23
2018-12-12T05:07:21.597Z,98992.19
2018-12-12T05:12:24.060Z,99004.84
2018-12-12T05:17:26.360Z,99003.67
2018-12-12T05:22:28.681Z,99004.84
2018-12-12T05:27:30.924Z,99007.73
2018-12-12T05:32:33.143Z,98998.59
2018-12-12T05:37:35.374Z,98995.92
2018-12-12T05:42:37.848Z,99000.77
2018-12-12T05:47:40.078Z,98996.25
2018-12-12T05:52:42.311Z,99000.30
2018-12-12T05:57:44.581Z,98994.11
2018-12-12T06:02:46.894Z,99005.05
2018-12-12T06:07:49.739Z,99006.54
2018-12-12T06:12:52.034Z,99014.98
2018-12-12T06:17:54.421Z,99012.99
2018-12-12T06:22:56.669Z,99017.87
2018-12-12T06:27:59.037Z,99015.89
2018-12-12T06:33:01.312Z,99016.10
2018-12-12T06:38:03.680Z,99015.59
2018-12-12T06:43:05.988Z,99020.02
2018-12-12T06:48:08.230Z,99024.11
2018-12-12T06:53:10.489Z,99033.25
2018-12-12T06:58:12.751Z,99026.25
2018-12-12T07:03:14.999Z,99034.44
2018-12-12T07:08:17.277Z,99039.45
2018-12-12T07:13:19.573Z,99047.13
2018-12-12T07:18:21.868Z,99040.77
2018-12-12T07:23:24.110Z,99042.97
2018-12-12T07:28:27.303Z,99053.09
2018-12-12T07:33:29.803Z,99054.45
2018-12-12T07:38:32.063Z,99055.34
2018-12-12T07:43:34.566Z,99064.37
2018-12-12T07:48:43.054Z,99066.62
2018-12-12T07:53:51.321Z,99072.30
2018-12-12T07:58:53.607Z,99074.66
2018-12-12T08:03:55.873Z,99082.20
2018-12-12T08:08:58.203Z,99086.95
2018-12-12T08:14:00.508Z,99097.05
2018-12-12T08:19:03.265Z,99091.00
2018-12-12T08:24:05.637Z,99091.61
2018-12-12T08:29:07.886Z,99099.29
2018-12-12T08:34:10.148Z,99110.08
2018-12-12T08:39:12.384Z,99115.40
2018-12-12T08:44:14.730Z,99116.09
2018-12-12T08:49:16.981Z,99125.11
2018-12-12T08:54:19.253Z,99124.37
2018-12-12T08:59:21.636Z,99116.27
2018-12-12T09:04:23.901Z,99123.47
2018-12-12T09:09:26.159Z,99119.75
2018-12-12T09:14:28.488Z,99125.28
2018-12-12T09:19:30.726Z,99137.23
2018-12-12T09:24:33.114Z,99139.01
2018-12-12T09:29:35.429Z,99147.14
2018-12-12T09:34:41.503Z,99135.72
2018-12-12T09:39:43.780Z,99136.13
2018-12-12T09:44:46.408Z,99137.52
2018-12-12T09:49:48.745Z,99140.35
2018-12-12T09:54:53.012Z,99144.82
2018-12-12T09:59:55.292Z,99148.81
2018-12-12T10:04:57.628Z,99153.17
2018-12-12T10:09:59.917Z,99147.53
2018-12-12T10:15:02.409Z,99149.61
2018-12-12T10:20:06.650Z,99146.55
2018-12-12T10:25:09.090Z,99148.98
2018-12-12T10:30:11.350Z,99142.80
2018-12-12T10:35:14.576Z,99152.00
2018-12-12T10:40:17.108Z,99150.66
2018-12-12T10:45:20.504Z,99143.48
2018-12-12T10:50:22.770Z,99140.88
2018-12-12T10:55:25.213Z,99147.07
2018-12-12T11:06:00.899Z,99143.91
2018-12-12T11:11:03.251Z,99130.35
2018-12-12T11:16:05.685Z,99137.38
2018-12-12T11:21:09.082Z,99131.63
2018-12-12T11:26:11.340Z,99134.16
2018-12-12T11:31:13.575Z,99126.73
2018-12-12T11:36:15.933Z,99135.00
2018-12-12T11:41:18.234Z,99125.23
2018-12-12T11:46:20.543Z,99133.21
2018-12-12T11:51:22.775Z,99129.70
2018-12-12T11:56:25.159Z,99131.55
2018-12-12T12:01:27.571Z,99138.08
2018-12-12T12:06:29.825Z,99136.08
2018-12-12T12:11:32.047Z,99137.89
2018-12-12T12:16:36.391Z,99145.44
2018-12-12T12:21:38.734Z,99142.14
2018-12-12T12:26:40.999Z,99139.31
2018-12-12T12:31:43.240Z,99135.83
2018-12-12T12:36:46.449Z,99137.67
2018-12-12T12:41:48.796Z,99134.05
2018-12-12T12:46:51.121Z,99127.70
2018-12-12T12:51:53.992Z,99129.63
2018-12-12T12:56:56.601Z,99135.68
2018-12-12T13:01:58.851Z,99132.05
2018-12-12T13:07:01.097Z,99132.84
2018-12-12T13:12:03.592Z,99129.63
2018-12-12T13:17:06.084Z,99133.06
2018-12-12T13:22:08.328Z,99136.08
2018-12-12T13:27:10.660Z,99124.33
2018-12-12T13:32:12.895Z,99122.55
2018-12-12T13:37:15.616Z,99129.37
2018-12-12T13:42:18.694Z,99133.07
2018-12-12T13:47:21.101Z,99134.52
2018-12-12T13:52:23.383Z,99126.06
2018-12-12T13:57:25.653Z,99131.15
2018-12-12T14:02:27.903Z,99130.45
2018-12-12T14:07:30.143Z,99138.48
2018-12-12T14:12:32.484Z,99138.77
2018-12-12T14:17:34.821Z,99141.85
2018-12-12T14:22:37.094Z,99133.19
2018-12-12T14:27:39.365Z,99127.96
2018-12-12T14:32:41.737Z,99123.36
2018-12-12T14:37:43.994Z,99124.33
2018-12-12T14:42:46.247Z,99126.94
2018-12-12T14:47:48.546Z,99126.11
2018-12-12T14:52:50.787Z,99130.50
2018-12-12T14:57:53.024Z,99134.70
2018-12-12T15:02:55.317Z,99133.88
2018-12-12T15:07:57.644Z,99142.54
2018-12-12T15:13:00.072Z,99136.95
2018-12-12T15:18:02.467Z,99133.18
2018-12-12T15:23:04.973Z,99133.80
2018-12-12T15:28:07.546Z,99139.78
2018-12-12T15:33:09.791Z,99137.31
2018-12-12T15:38:12.244Z,99143.62
2018-12-12T15:43:14.914Z,99137.23
2018-12-12T15:48:18.732Z,99137.34
2018-12-12T15:53:20.992Z,99137.34
2018-12-12T15:58:23.694Z,99137.95
2018-12-12T16:03:26.532Z,99129.80
2018-12-12T16:08:28.864Z,99132.41
2018-12-12T16:13:31.429Z,99139.55
2018-12-12T16:18:33.737Z,99137.88
2018-12-12T16:23:37.203Z,99136.24
2018-12-12T16:28:39.805Z,99137.80
2018-12-12T16:33:42.331Z,99136.17
2018-12-12T16:38:45.181Z,99133.95
2018-12-12T16:43:47.883Z,99132.42
2018-12-12T16:48:52.618Z,99135.65
2018-12-12T16:53:54.915Z,99133.73
2018-12-12T16:58:57.590Z,99135.87
2018-12-12T17:03:59.859Z,99141.78
2018-12-12T17:09:04.013Z,99136.42
2018-12-12T17:14:07.711Z,99135.00
2018-12-12T17:19:10.055Z,99135.33
2018-12-12T17:24:12.338Z,99129.28
2018-12-12T17:29:14.601Z,99120.90
2018-12-12T17:34:16.860Z,99129.56
2018-12-12T17:39:19.375Z,99132.87
2018-12-12T17:44:22.557Z,99140.08
2018-12-12T17:49:25.013Z,99141.72
2018-12-12T17:54:27.287Z,99139.47
2018-12-12T17:59:29.645Z,99147.30
2018-12-12T18:04:33.345Z,99151.36
2018-12-12T18:09:35.576Z,99148.86
2018-12-12T18:14:37.966Z,99146.75
2018-12-12T18:19:42.389Z,99142.95
2018-12-12T18:24:44.969Z,99145.84
2018-12-12T18:29:47.303Z,99153.30
2018-12-12T18:34:51.622Z,99143.56
2018-12-12T18:39:53.930Z,99143.23
2018-12-12T18:44:58.302Z,99151.39
2018-12-12T18:50:00.575Z,99153.20
2018-12-12T18:55:05.017Z,99152.36
2018-12-12T19:00:09.567Z,99149.61
2018-12-12T19:05:11.984Z,99144.92
2018-12-12T19:10:14.457Z,99148.28
2018-12-12T19:15:16.773Z,99147.18
2018-12-12T19:20:19.159Z,99141.44
2018-12-12T19:25:21.621Z,99147.87
2018-12-12T19:30:23.908Z,99145.45
2018-12-12T19:35:26.666Z,99147.01
2018-12-12T19:40:28.989Z,99157.91
2018-12-12T19:45:31.251Z,99165.88
2018-12-12T19:50:34.587Z,99164.23
2018-12-12T19:55:36.860Z,99160.57
2018-12-12T20:00:39.175Z,99149.49
2018-12-12T20:05:41.626Z,99154.16
2018-12-12T20:10:45.305Z,99153.33
2018-12-12T20:15:47.714Z,99160.63
2018-12-12T20:20:50.089Z,99161.70
2018-12-12T20:25:52.347Z,99165.16
2018-12-12T20:30:55.776Z,99163.16
2018-12-12T20:35:58.033Z,99164.22
2018-12-12T20:41:00.317Z,99176.38
2018-12-12T20:46:02.794Z,99175.30
2018-12-12T20:51:05.083Z,99172.09
2018-12-12T20:56:07.368Z,99169.62
2018-12-12T21:01:09.639Z,99165.38
2018-12-12T21:06:11.920Z,99165.98
2018-12-12T21:11:14.739Z,99170.03
2018-12-12T21:16:18.127Z,99164.92
2018-12-12T21:21:20.412Z,99168.69
2018-12-12T21:26:23.056Z,99172.27
2018-12-12T21:31:25.377Z,99169.89
2018-12-12T21:36:28.096Z,99161.52
2018-12-12T21:41:30.337Z,99174.45
2018-12-12T21:46:32.626Z,99168.50
2018-12-12T21:51:35.560Z,99176.18
2018-12-12T21:56:37.814Z,99174.17
2018-12-12T22:01:40.072Z,99174.27
2018-12-12T22:06:42.357Z,99175.84
2018-12-12T22:11:44.622Z,99176.92
2018-12-12T22:16:47.544Z,99170.97
2018-12-12T22:21:50.079Z,99166.12
2018-12-12T22:26:52.334Z,99163.75
2018-12-12T22:31:54.599Z,99169.23
2018-12-12T22:36:57.045Z,99167.70
2018-12-12T22:41:59.419Z,99173.61
2018-12-12T22:47:01.758Z,99173.61
2018-12-12T22:52:04.174Z,99162.59
2018-12-12T22:57:06.547Z,99172.41
2018-12-12T23:02:08.791Z,99176.92
2018-12-12T23:07:11.255Z,99173.28
2018-12-12T23:12:13.711Z,99169.98
2018-12-12T23:17:16.159Z,99166.80
2018-12-12T23:22:18.512Z,99161.03
2018-12-12T23:27:20.756Z,99163.67
2018-12-12T23:32:23.055Z,99162.50
2018-12-12T23:37:25.279Z,99165.57
2018-12-12T23:42:27.530Z,99164.77
2018-12-12T23:47:29.771Z,99168.58
2018-12-12T23:52:32.031Z,99163.23
2018-12-12T23:57:34.279Z,99162.16
